Albany, NY (12205)

11:43 AM EST on November 22, 2014 (GMT -0500)
Colonie | Change Station
CLOSE
Current Station
Personal Weather Station
Location: Albany, NY
Elevation: 302 ft
Nearby Weather Stations

Elev 302 ft 42.73 °N, 73.82 °W | Updated 53 seconds ago

Mostly Cloudy
Mostly Cloudy
31.1 °F
Feels Like 24 °F
N
8.0
Wind Variable Wind from South
Gusts 10.0 mph

Today
High -- | Low -- °F
--% Chance of Precip.
Yesterday
High -- | Low -- °F
Precip. -- in
6:55 AM 4:26 PM
New Moon, 0% visible
Pressure 30.32 in
Visibility 10.0 miles
Clouds Few 14000 ft
Mostly Cloudy 19000 ft
Mostly Cloudy 26000 ft
Windchill 24 °F
Dew Point 16 °F
Humidity 54%
Rainfall 0.00 in
Snow Depth Not available.
UV 1 out of 12
Pollen .10 out of 12
Air Quality Not available.
Flu Activity Not available.
METAR KALB 221551Z 18009KT 10SM FEW140 BKN190 BKN260 M02/M10 A3031 RMK AO2 SLP268 T10171100

More Conditions Fewer Conditions

Pressure 30.32 in
Visibility 10.0 miles
Clouds Few 14000 ft
Mostly Cloudy 19000 ft
Mostly Cloudy 26000 ft
Windchill 24 °F
Dew Point 16 °F
Humidity 54%
Rainfall 0.00 in
Snow Depth Not available.
UV 1 out of 12
Pollen .10 out of 12
Air Quality Not available.
Flu Activity Not available.
METAR KALB 221551Z 18009KT 10SM FEW140 BKN190 BKN260 M02/M10 A3031 RMK AO2 SLP268 T10171100

More Conditions Fewer Conditions

10-Day Weather Forecast

Almanac

Astronomy

Nov. 22, 2014 Rise Set
Actual Time
Civil Twilight
Nautical Twilight
Astronomical Twilight
Moon
Length of Visible Light
Length of Day
Tomorrow will be .
, % of the Moon is Illuminated

Today's Extremes

State Highs State Lows

Community

WunderPhotos

Upload Photos

1,772,855 photos uploaded!

WunderBlogs® & News

Nearby

Air Quality

  Air Quality AQ Index Pollutant
Not available.

Snow Depth

Station Depth Elevation

Earthquake Activity

City Distance Mag. Time & Date
Minimum magnitude displayed is 2.5.

Coastal Water Temperatures

Place Temperature

Nearby Weather Stations